createdAt,value
2022-12-18T12:43:18.441Z,16.48
2022-12-18T12:46:01.522Z,15.75
2022-12-18T12:48:53.742Z,16.45
2022-12-18T12:51:33.531Z,14.98
2022-12-18T12:54:06.964Z,16.00
2022-12-18T12:56:45.884Z,14.98
2022-12-18T12:59:35.691Z,15.20
2022-12-18T13:02:25.641Z,14.87
2022-12-18T13:05:08.044Z,14.93
2022-12-18T13:07:41.622Z,14.90
2022-12-18T13:10:22.233Z,14.65
2022-12-18T13:13:02.219Z,14.40
2022-12-18T13:15:41.857Z,13.62
2022-12-18T13:18:15.604Z,14.90
2022-12-18T13:20:56.304Z,14.03
2022-12-18T13:23:30.441Z,20.48
2022-12-18T13:28:53.601Z,14.90
2022-12-18T13:31:45.278Z,12.82
2022-12-18T13:34:27.713Z,15.08
2022-12-18T13:37:00.526Z,13.30
2022-12-18T13:39:36.753Z,13.60
2022-12-18T13:42:10.439Z,13.75
2022-12-18T13:44:42.449Z,12.82
2022-12-18T13:47:36.458Z,13.95
2022-12-18T13:50:18.654Z,12.70
2022-12-18T13:52:50.291Z,13.45
2022-12-18T13:55:22.774Z,12.75
2022-12-18T13:57:55.867Z,13.25
2022-12-18T14:00:31.837Z,12.43
2022-12-18T14:03:03.067Z,12.40
2022-12-18T14:05:43.365Z,12.80
2022-12-18T14:08:18.187Z,11.95
2022-12-18T14:10:50.491Z,12.13
2022-12-18T14:13:32.972Z,13.40
2022-12-18T14:16:06.061Z,12.95
2022-12-18T14:18:48.212Z,12.70
2022-12-18T14:21:27.008Z,11.90
2022-12-18T14:24:11.943Z,12.93
2022-12-18T14:26:42.402Z,12.70
2022-12-18T14:29:24.759Z,11.90
2022-12-18T14:32:18.326Z,11.60
2022-12-18T14:34:58.085Z,12.82
2022-12-18T14:37:29.266Z,11.75
2022-12-18T14:40:10.606Z,11.97
2022-12-18T14:42:35.860Z,11.85
2022-12-18T14:45:43.858Z,12.35
2022-12-18T14:48:24.330Z,11.90
2022-12-18T14:51:00.652Z,11.63
2022-12-18T14:53:56.618Z,12.35
2022-12-18T14:56:30.226Z,12.33
2022-12-18T14:59:22.332Z,11.45
2022-12-18T15:01:52.994Z,12.63
2022-12-18T15:04:36.311Z,12.00
2022-12-18T15:07:23.411Z,11.25
2022-12-18T15:10:12.402Z,11.68
2022-12-18T15:12:45.337Z,11.45
2022-12-18T15:15:38.319Z,11.93
2022-12-18T15:18:14.243Z,10.55
2022-12-18T15:21:00.156Z,11.10
2022-12-18T15:23:33.584Z,10.00
2022-12-18T15:26:10.015Z,9.75
2022-12-18T15:28:43.739Z,10.08
2022-12-18T15:31:19.822Z,10.10
2022-12-18T15:33:55.691Z,10.13
2022-12-18T15:36:31.867Z,9.23
2022-12-18T15:42:08.113Z,10.40
2022-12-18T15:44:38.758Z,9.48
2022-12-18T15:47:12.112Z,9.98
2022-12-18T15:49:42.408Z,9.88
2022-12-18T15:52:17.044Z,9.75
2022-12-18T15:55:05.401Z,9.35
2022-12-18T15:57:35.704Z,8.18
2022-12-18T16:00:06.912Z,8.93
2022-12-18T16:02:37.226Z,9.33
2022-12-18T16:05:13.642Z,9.00
2022-12-18T16:07:43.978Z,9.28
2022-12-18T16:10:14.556Z,8.75
2022-12-18T16:12:45.243Z,8.65
2022-12-18T16:15:22.423Z,7.95
2022-12-18T16:17:49.529Z,8.53
2022-12-18T16:20:22.209Z,8.15
2022-12-18T16:22:54.081Z,8.48
2022-12-18T16:25:29.570Z,7.87
2022-12-18T16:27:59.926Z,8.58
2022-12-18T16:30:38.360Z,8.60
2022-12-18T16:33:04.097Z,7.97
2022-12-18T16:35:34.625Z,8.30
2022-12-18T16:38:05.156Z,7.55
2022-12-18T16:40:37.407Z,8.03
2022-12-18T16:43:07.504Z,7.67
2022-12-18T16:45:37.632Z,7.72
2022-12-18T16:48:08.153Z,8.03
2022-12-18T16:50:38.311Z,7.85
2022-12-18T16:53:08.468Z,8.53
2022-12-18T16:55:38.704Z,7.47
2022-12-18T16:58:09.107Z,8.28
2022-12-18T17:00:41.350Z,7.75
2022-12-18T17:03:11.717Z,7.20
2022-12-18T17:05:42.627Z,7.97
2022-12-18T17:08:13.003Z,6.95
2022-12-18T17:10:43.372Z,7.62
2022-12-18T17:13:13.499Z,7.35
2022-12-18T17:15:43.697Z,7.45
2022-12-18T17:18:13.840Z,7.12
2022-12-18T17:20:44.009Z,7.95
2022-12-18T17:23:14.187Z,6.90
2022-12-18T17:25:44.423Z,6.80
2022-12-18T17:28:14.529Z,6.83
2022-12-18T17:30:44.780Z,7.37
2022-12-18T17:33:15.149Z,7.12
2022-12-18T17:35:46.545Z,7.22
2022-12-18T17:38:19.345Z,6.50
2022-12-18T17:40:49.477Z,8.03
2022-12-18T17:43:21.416Z,8.68
2022-12-18T17:45:53.300Z,8.63
2022-12-18T17:48:23.532Z,8.50
2022-12-18T17:50:54.647Z,7.75
2022-12-18T17:53:24.784Z,7.40
2022-12-18T17:56:01.078Z,7.35
2022-12-18T17:58:31.332Z,6.95
2022-12-18T18:01:02.029Z,7.25
2022-12-18T18:03:34.120Z,6.95
2022-12-18T18:06:04.564Z,7.22
2022-12-18T18:08:36.233Z,7.72
2022-12-18T18:11:26.809Z,8.20
2022-12-18T18:14:04.558Z,10.13
2022-12-18T18:16:40.569Z,8.28
2022-12-18T18:19:14.208Z,8.75
2022-12-18T18:21:47.114Z,9.10
2022-12-18T18:24:20.807Z,9.10
2022-12-18T18:26:51.780Z,15.13
2022-12-18T18:29:25.363Z,16.45
2022-12-18T18:31:57.413Z,16.10
2022-12-18T18:34:30.705Z,17.65
2022-12-18T18:37:02.291Z,18.20
2022-12-18T18:39:32.821Z,18.75
2022-12-18T18:42:03.118Z,20.17
2022-12-18T18:44:34.025Z,15.58
2022-12-18T18:47:06.306Z,13.98
2022-12-18T18:49:36.309Z,14.87
2022-12-18T18:52:07.539Z,13.35
2022-12-18T18:54:37.622Z,12.85
2022-12-18T18:57:20.527Z,12.40
2022-12-18T18:59:41.651Z,11.35
2022-12-18T19:02:14.889Z,12.90
2022-12-18T19:04:46.885Z,12.70
2022-12-18T19:07:29.981Z,10.85
2022-12-18T19:09:52.158Z,10.95
2022-12-18T19:12:40.488Z,11.83
2022-12-18T19:15:11.609Z,10.93
2022-12-18T19:17:44.779Z,12.18
2022-12-18T19:20:15.922Z,19.23
2022-12-18T19:22:54.898Z,18.10
2022-12-18T19:25:18.481Z,16.02
2022-12-18T19:27:49.060Z,14.63
2022-12-18T19:30:19.235Z,14.07
2022-12-18T19:32:49.391Z,12.37
2022-12-18T19:35:19.778Z,13.22
2022-12-18T19:37:50.374Z,13.25
2022-12-18T19:40:20.730Z,13.53
2022-12-18T19:42:51.157Z,11.73
2022-12-18T19:45:21.422Z,12.55
2022-12-18T19:47:53.421Z,12.00
2022-12-18T19:50:23.803Z,10.93
2022-12-18T19:52:54.723Z,10.00
2022-12-18T19:55:25.096Z,9.60
2022-12-18T19:57:55.477Z,10.32
2022-12-18T20:00:25.855Z,10.00
2022-12-18T20:03:02.437Z,9.80
2022-12-18T20:05:28.699Z,9.58
2022-12-18T20:07:59.559Z,10.60
2022-12-18T20:10:32.249Z,9.78
2022-12-18T20:13:02.532Z,8.48
2022-12-18T20:15:32.837Z,11.88
2022-12-18T20:18:03.120Z,11.73
2022-12-18T20:20:33.764Z,13.32
2022-12-18T20:23:05.112Z,11.20
2022-12-18T20:25:35.374Z,12.93
2022-12-18T20:28:06.135Z,17.95
2022-12-18T20:30:36.364Z,15.58
2022-12-18T20:33:06.686Z,12.25
2022-12-18T20:35:37.093Z,12.88
2022-12-18T20:38:07.248Z,12.93
2022-12-18T20:40:38.041Z,11.55
2022-12-18T20:43:12.431Z,12.43
2022-12-18T20:45:41.339Z,12.20
2022-12-18T20:48:13.886Z,11.88
2022-12-18T20:50:44.152Z,11.30
2022-12-18T20:53:14.255Z,11.25
2022-12-18T20:55:44.739Z,10.88
2022-12-18T20:58:14.983Z,10.65
2022-12-18T21:00:45.237Z,10.15
2022-12-18T21:03:15.532Z,8.75
2022-12-18T21:05:45.918Z,8.50
2022-12-18T21:08:16.261Z,8.63
2022-12-18T21:10:46.511Z,8.38
2022-12-18T21:13:17.037Z,7.92
2022-12-18T21:15:48.914Z,8.13
2022-12-18T21:18:19.142Z,7.87
2022-12-18T21:20:49.967Z,7.72
2022-12-18T21:23:20.431Z,7.08
2022-12-18T21:25:55.850Z,8.50
2022-12-18T21:28:27.147Z,7.87
2022-12-18T21:30:58.664Z,7.65
2022-12-18T21:33:29.066Z,7.12
2022-12-18T21:35:59.263Z,7.37
2022-12-18T21:38:29.569Z,7.08
2022-12-18T21:40:59.999Z,7.40
2022-12-18T21:43:48.169Z,7.53
2022-12-18T21:46:18.732Z,7.10
2022-12-18T21:48:49.046Z,7.22
2022-12-18T21:51:19.311Z,7.17
2022-12-18T21:53:49.576Z,7.33
2022-12-18T21:56:20.037Z,7.95
2022-12-18T21:58:56.684Z,7.80
2022-12-18T22:01:23.388Z,7.12
2022-12-18T22:03:53.536Z,7.25
2022-12-18T22:06:23.755Z,6.67
2022-12-18T22:08:53.925Z,7.15
2022-12-18T22:11:24.286Z,7.12
2022-12-18T22:13:54.397Z,6.72
2022-12-18T22:16:24.786Z,6.97
2022-12-18T22:18:56.097Z,6.62
2022-12-18T22:21:29.743Z,5.90
2022-12-18T22:24:06.183Z,6.50
2022-12-18T22:26:40.301Z,6.70
2022-12-18T22:29:39.682Z,7.05
2022-12-18T22:32:15.199Z,6.35
2022-12-18T22:37:15.797Z,5.85
2022-12-18T22:39:46.019Z,6.47
2022-12-18T22:42:16.403Z,6.40
2022-12-18T22:44:46.420Z,5.97
2022-12-18T22:47:16.635Z,5.67
2022-12-18T22:49:46.813Z,6.20
2022-12-18T22:52:17.092Z,6.35
2022-12-18T22:54:48.927Z,6.10
2022-12-18T22:57:19.158Z,7.05
2022-12-18T22:59:49.428Z,6.90
2022-12-18T23:02:20.076Z,6.58
2022-12-18T23:04:50.423Z,6.17
2022-12-18T23:07:20.544Z,6.75
2022-12-18T23:10:00.664Z,6.20
2022-12-18T23:12:24.603Z,6.95
2022-12-18T23:14:54.972Z,6.70
2022-12-18T23:17:25.160Z,6.95
2022-12-18T23:19:55.368Z,5.83
2022-12-18T23:22:25.589Z,5.83
2022-12-18T23:24:55.699Z,7.20
2022-12-18T23:27:25.964Z,7.25
2022-12-18T23:29:56.215Z,6.37
2022-12-18T23:32:28.011Z,6.12
2022-12-18T23:34:58.223Z,7.05
2022-12-18T23:37:56.896Z,6.90
2022-12-18T23:40:00.309Z,6.95
2022-12-18T23:42:30.525Z,7.30
2022-12-18T23:45:00.748Z,7.10
2022-12-18T23:47:32.738Z,6.90
2022-12-18T23:50:03.168Z,6.92
2022-12-18T23:52:33.291Z,7.45
2022-12-18T23:55:03.515Z,7.10
2022-12-18T23:57:33.725Z,7.12
